Map

Track Data

SID SEASON NUMBER BASIN SUBBASIN NAME ISO_TIME NATURE LAT LON WMO_WIND WMO_PRES WMO_AGENCY TRACK_TYPE DIST2LAND LANDFALL IFLAG USA_AGENCY USA_ATCF_ID USA_LAT USA_LON USA_RECORD USA_STATUS USA_WIND USA_PRES USA_SSHS USA_R34_NE USA_R34_SE USA_R34_SW USA_R34_NW USA_R50_NE USA_R50_SE USA_R50_SW USA_R50_NW USA_R64_NE USA_R64_SE USA_R64_SW USA_R64_NW USA_POCI USA_ROCI USA_RMW USA_EYE TOKYO_LAT TOKYO_LON TOKYO_GRADE TOKYO_WIND TOKYO_PRES TOKYO_R50_DIR TOKYO_R50_LONG TOKYO_R50_SHORT TOKYO_R30_DIR TOKYO_R30_LONG TOKYO_R30_SHORT TOKYO_LAND CMA_LAT CMA_LON CMA_CAT CMA_WIND CMA_PRES HKO_LAT HKO_LON HKO_CAT HKO_WIND HKO_PRES NEWDELHI_LAT NEWDELHI_LON NEWDELHI_GRADE NEWDELHI_WIND NEWDELHI_PRES NEWDELHI_CI NEWDELHI_DP NEWDELHI_POCI REUNION_LAT REUNION_LON REUNION_TYPE REUNION_WIND REUNION_PRES REUNION_TNUM REUNION_CI REUNION_RMW REUNION_R34_NE REUNION_R34_SE REUNION_R34_SW REUNION_R34_NW REUNION_R50_NE REUNION_R50_SE REUNION_R50_SW REUNION_R50_NW REUNION_R64_NE REUNION_R64_SE REUNION_R64_SW REUNION_R64_NW BOM_LAT BOM_LON BOM_TYPE BOM_WIND BOM_PRES BOM_TNUM BOM_CI BOM_RMW BOM_R34_NE BOM_R34_SE BOM_R34_SW BOM_R34_NW BOM_R50_NE BOM_R50_SE BOM_R50_SW BOM_R50_NW BOM_R64_NE BOM_R64_SE BOM_R64_SW BOM_R64_NW BOM_ROCI BOM_POCI BOM_EYE BOM_POS_METHOD BOM_PRES_METHOD NADI_LAT NADI_LON NADI_CAT NADI_WIND NADI_PRES WELLINGTON_LAT WELLINGTON_LON WELLINGTON_WIND WELLINGTON_PRES DS824_LAT DS824_LON DS824_STAGE DS824_WIND DS824_PRES TD9636_LAT TD9636_LON TD9636_STAGE TD9636_WIND TD9636_PRES TD9635_LAT TD9635_LON TD9635_WIND TD9635_PRES TD9635_ROCI NEUMANN_LAT NEUMANN_LON NEUMANN_CLASS NEUMANN_WIND NEUMANN_PRES MLC_LAT MLC_LON MLC_CLASS MLC_WIND MLC_PRES USA_GUST BOM_GUST BOM_GUST_PER REUNION_GUST REUNION_GUST_PER USA_SEAHGT USA_SEARAD_NE USA_SEARAD_SE USA_SEARAD_SW USA_SEARAD_NW STORM_SPEED STORM_DIR
2000233N12316 2000 69 NA NA DEBBY 2000-08-19 18:00:00 TS 12.0000 -44.5000 30 1010 hurdat_atl main 1142 1134 O_____________ hurdat_atl AL072000 12.0000 -44.5000 TD 30 1010 -1 9 311
2000233N12316 2000 69 NA NA DEBBY 2000-08-19 21:00:00 TS 12.2900 -44.8424 main 1146 1137 P_____________ AL072000 12.2900 -44.8424 TD 30 1010 -1 10 308
2000233N12316 2000 69 NA NA DEBBY 2000-08-20 00:00:00 TS 12.6000 -45.3000 30 1010 hurdat_atl main 1140 1127 O_____________ hurdat_atl AL072000 12.6000 -45.3000 TD 30 1010 -1 13 301
2000233N12316 2000 69 NA NA DEBBY 2000-08-20 03:00:00 TS 12.9423 -45.9602 main 1125 1112 P_____________ AL072000 12.9423 -45.9602 TD 32 1009 -1 16 296
2000233N12316 2000 69 NA NA DEBBY 2000-08-20 06:00:00 TS 13.3000 -46.8000 35 1009 hurdat_atl main 1108 1083 O_____________ hurdat_atl AL072000 13.3000 -46.8000 TS 35 1009 0 19 292
2000233N12316 2000 69 NA NA DEBBY 2000-08-20 09:00:00 TS 13.6502 -47.7776 main 1087 1067 P_____________ AL072000 13.6502 -47.7776 TS 37 1008 0 21 290
2000233N12316 2000 69 NA NA DEBBY 2000-08-20 12:00:00 TS 14.0000 -48.8000 40 1008 hurdat_atl main 1068 1061 O_____________ hurdat_atl AL072000 14.0000 -48.8000 TS 40 1008 0 20 291
2000233N12316 2000 69 NA NA DEBBY 2000-08-20 15:00:00 TS 14.3722 -49.7374 main 1071 1058 P_____________ AL072000 14.3722 -49.7374 TS 42 1007 0 19 292
2000233N12316 2000 69 NA NA DEBBY 2000-08-20 18:00:00 TS 14.7000 -50.6000 45 1007 hurdat_atl main 1061 1056 O_____________ hurdat_atl AL072000 14.7000 -50.6000 TS 45 1007 0 17 290
2000233N12316 2000 69 NA NA DEBBY 2000-08-20 21:00:00 TS 14.9292 -51.3429 main 1056 1052 P_____________ AL072000 14.9292 -51.3429 TS 50 1006 0 15 285
2000233N12316 2000 69 NA NA DEBBY 2000-08-21 00:00:00 TS 15.1000 -52.1000 55 1006 hurdat_atl main 1055 1012 O_____________ hurdat_atl AL072000 15.1000 -52.1000 TS 55 1006 0 16 282
2000233N12316 2000 69 NA NA DEBBY 2000-08-21 03:00:00 TS 15.2570 -52.9903 main 1008 932 P_____________ AL072000 15.2570 -52.9903 TS 60 1005 0 19 279
2000233N12316 2000 69 NA NA DEBBY 2000-08-21 06:00:00 TS 15.4000 -54.0000 65 1005 hurdat_atl main 923 835 O_____________ hurdat_atl AL072000 15.4000 -54.0000 HU 65 1005 1 21 278
2000233N12316 2000 69 NA NA DEBBY 2000-08-21 09:00:00 TS 15.5425 -55.1277 main 835 763 P_____________ AL072000 15.5425 -55.1277 HU 70 1004 1 22 278
2000233N12316 2000 69 NA NA DEBBY 2000-08-21 12:00:00 TS 15.7000 -56.3000 75 1004 hurdat_atl main 756 697 O_____________ hurdat_atl AL072000 15.7000 -56.3000 HU 75 1004 1 23 278
2000233N12316 2000 69 NA NA DEBBY 2000-08-21 15:00:00 TS 15.8699 -57.4527 main 694 661 P_____________ AL072000 15.8699 -57.4527 HU 75 1004 1 22 281
2000233N12316 2000 69 NA NA DEBBY 2000-08-21 18:00:00 TS 16.1000 -58.5000 75 1004 hurdat_atl main 662 653 O_____________ hurdat_atl AL072000 16.1000 -58.5000 HU 75 1004 1 19 287
2000233N12316 2000 69 NA NA DEBBY 2000-08-21 21:00:00 TS 16.4390 -59.3409 main 664 604 P_____________ AL072000 16.4390 -59.3409 HU 72 999 1 17 295
2000233N12316 2000 69 NA NA DEBBY 2000-08-22 00:00:00 TS 16.8000 -60.1000 70 995 hurdat_atl main 604 513 O_____________ hurdat_atl AL072000 16.8000 -60.1000 HU 70 995 1 16 294
2000233N12316 2000 69 NA CS DEBBY 2000-08-22 03:00:00 TS 17.1000 -60.9000 70 991 hurdat_atl main 513 420 O_____________ hurdat_atl AL072000 17.1000 -60.9000 P HU 70 991 1 17 295
2000233N12316 2000 69 NA CS DEBBY 2000-08-22 06:00:00 TS 17.5000 -61.7000 65 993 hurdat_atl main 420 308 O_____________ hurdat_atl AL072000 17.5000 -61.7000 L HU 65 993 1 19 294
2000233N12316 2000 69 NA CS DEBBY 2000-08-22 09:00:00 TS 17.8752 -62.7221 main 308 297 P_____________ AL072000 17.8752 -62.7221 HU 65 993 1 21 291
2000233N12316 2000 69 NA CS DEBBY 2000-08-22 09:15:00 TS 17.9000 -62.8000 65 993 hurdat_atl main 297 222 O_____________ hurdat_atl AL072000 17.9000 -62.8000 L HU 65 993 1 15 287
2000233N12316 2000 69 NA CS DEBBY 2000-08-22 12:00:00 TS 18.1000 -63.5000 65 994 hurdat_atl main 222 137 O_____________ hurdat_atl AL072000 18.1000 -63.5000 HU 65 994 1 17 292
2000233N12316 2000 69 NA CS DEBBY 2000-08-22 15:00:00 TS 18.5000 -64.4000 65 994 hurdat_atl main 127 49 O_____________ hurdat_atl AL072000 18.5000 -64.4000 L HU 65 994 1 19 291
2000233N12316 2000 69 NA CS DEBBY 2000-08-22 18:00:00 TS 18.8000 -65.4000 65 995 hurdat_atl main 49 45 O_____________ hurdat_atl AL072000 18.8000 -65.4000 HU 65 995 1 17 288
2000233N12316 2000 69 NA NA DEBBY 2000-08-22 21:00:00 TS 19.0264 -66.1152 main 67 67 P_____________ AL072000 19.0264 -66.1152 HU 65 995 1 13 288
2000233N12316 2000 69 NA NA DEBBY 2000-08-23 00:00:00 TS 19.2000 -66.7000 65 995 hurdat_atl main 89 89 O_____________ hurdat_atl AL072000 19.2000 -66.7000 HU 65 995 1 12 286
2000233N12316 2000 69 NA NA DEBBY 2000-08-23 03:00:00 TS 19.3571 -67.3778 main 112 94 P_____________ AL072000 19.3571 -67.3778 HU 65 995 1 14 283
2000233N12316 2000 69 NA NA DEBBY 2000-08-23 06:00:00 TS 19.5000 -68.1000 65 995 hurdat_atl main 94 61 O_____________ hurdat_atl AL072000 19.5000 -68.1000 HU 65 995 1 14 282
2000233N12316 2000 69 NA NA DEBBY 2000-08-23 09:00:00 TS 19.6571 -68.8700 main 61 38 P_____________ AL072000 19.6571 -68.8700 HU 62 1000 0 15 281
2000233N12316 2000 69 NA NA DEBBY 2000-08-23 12:00:00 TS 19.8000 -69.7000 60 1005 hurdat_atl main 38 15 O_____________ hurdat_atl AL072000 19.8000 -69.7000 TS 60 1005 0 16 280
2000233N12316 2000 69 NA NA DEBBY 2000-08-23 15:00:00 TS 19.9298 -70.5848 main 11 11 P_____________ AL072000 19.9298 -70.5848 TS 55 1007 0 17 277
2000233N12316 2000 69 NA NA DEBBY 2000-08-23 18:00:00 TS 20.0000 -71.5000 50 1009 hurdat_atl main 22 22 O_____________ hurdat_atl AL072000 20.0000 -71.5000 TS 50 1009 0 17 272
2000233N12316 2000 69 NA NA DEBBY 2000-08-23 21:00:00 TS 19.9870 -72.4001 main 22 0 P_____________ AL072000 19.9870 -72.4001 TS 45 1009 0 17 267
2000233N12316 2000 69 NA NA DEBBY 2000-08-24 00:00:00 TS 19.9000 -73.3000 40 1010 hurdat_atl main 11 11 O_____________ hurdat_atl AL072000 19.9000 -73.3000 TS 40 1010 0 17 262
2000233N12316 2000 69 NA CS DEBBY 2000-08-24 03:00:00 TS 19.7494 -74.1928 main 45 33 P_____________ AL072000 19.7494 -74.1928 TS 37 1010 0 17 260
2000233N12316 2000 69 NA CS DEBBY 2000-08-24 06:00:00 TS 19.6000 -75.1000 35 1011 hurdat_atl main 33 33 O_____________ hurdat_atl AL072000 19.6000 -75.1000 TS 35 1011 0 18 263
2000233N12316 2000 69 NA CS DEBBY 2000-08-24 09:00:00 TS 19.5261 -76.0397 main 55 45 P_____________ AL072000 19.5261 -76.0397 TS 32 1011 -1 18 267
2000233N12316 2000 69 NA CS DEBBY 2000-08-24 12:00:00 TS 19.5000 -77.0000 30 1011 hurdat_atl main 44 O_____________ hurdat_atl AL072000 19.5000 -77.0000 TD 30 1011 -1 18 268

About IBTrACS Database

This database is a web-friendly format of International Best Track Archive for Climate Stewardship (IBTrACS), a global best track data archive curated by NOAA dating back to 1842.

Updated: 2021-12-03